Time;durP1;ratioP1;P1;durP2;ratioP2;P2;SDS_P1;SDS_P2;PMS_P1;PMS_P2;Temp;Humidity;BMP_temperature;BMP_pressure;BME280_temperature;BME280_humidity;BME280_pressure;Samples;Min_cycle;Max_cycle;Signal;HPM_P1;HPM_P2
2023/10/28 00:01:17;;;;;;;3.08;0.60;;;18.30;36.80;;;;;;7404200;19;19919;-74
2023/10/28 00:03:44;;;;;;;1.90;0.30;;;18.20;36.90;;;;;;7405427;19;19922;-75
2023/10/28 00:06:10;;;;;;;2.58;0.57;;;18.20;36.90;;;;;;7402235;19;19947;-75
2023/10/28 00:08:36;;;;;;;2.38;0.40;;;18.10;37.00;;;;;;7405534;19;19919;-75
2023/10/28 00:11:04;;;;;;;2.15;0.40;;;18.10;36.90;;;;;;7402703;19;19919;-74
2023/10/28 00:13:30;;;;;;;4.32;0.60;;;18.20;36.80;;;;;;7403446;19;19918;-75
2023/10/28 00:15:57;;;;;;;1.90;0.35;;;18.20;36.90;;;;;;7380147;19;19982;-75
2023/10/28 00:18:24;;;;;;;1.75;0.43;;;18.00;37.20;;;;;;7402002;19;19946;-74
2023/10/28 00:20:50;;;;;;;2.45;0.50;;;18.10;37.10;;;;;;7403213;19;19928;-77
2023/10/28 00:23:16;;;;;;;3.15;0.75;;;18.10;37.30;;;;;;7403515;19;19911;-75
2023/10/28 00:25:43;;;;;;;2.30;0.50;;;18.00;37.20;;;;;;7401133;19;20367;-75
2023/10/28 00:28:09;;;;;;;2.83;0.60;;;18.00;37.00;;;;;;7402358;19;19914;-74
2023/10/28 00:30:41;;;;;;;2.60;0.60;;;18.00;37.20;;;;;;7400709;19;19982;-76
2023/10/28 00:33:07;;;;;;;2.88;0.82;;;17.90;37.80;;;;;;7400255;19;19918;-74
2023/10/28 00:35:36;;;;;;;1.50;0.52;;;17.80;38.10;;;;;;7407303;19;19926;-74
2023/10/28 00:38:02;;;;;;;1.50;0.45;;;17.90;38.10;;;;;;7403235;19;20610;-74
2023/10/28 00:40:29;;;;;;;1.75;0.40;;;17.80;38.00;;;;;;7403191;19;19918;-75
2023/10/28 00:42:56;;;;;;;2.13;0.40;;;17.80;38.50;;;;;;7402081;19;19947;-74
2023/10/28 00:45:22;;;;;;;2.67;0.38;;;17.70;38.70;;;;;;7402708;19;19918;-75
2023/10/28 00:47:49;;;;;;;2.42;0.45;;;17.80;38.70;;;;;;7396634;19;20235;-76
2023/10/28 00:50:15;;;;;;;3.15;0.60;;;17.90;38.20;;;;;;7404671;19;19923;-75
2023/10/28 00:52:50;;;;;;;1.77;0.60;;;17.80;38.40;;;;;;7398102;19;19918;-75
2023/10/28 00:55:18;;;;;;;4.22;0.80;;;17.90;38.50;;;;;;7401880;19;19945;-74
2023/10/28 00:57:44;;;;;;;3.03;0.50;;;17.80;38.60;;;;;;7400278;19;19922;-74
2023/10/28 01:00:12;;;;;;;2.70;0.45;;;17.70;39.60;;;;;;7402888;19;19936;-73
2023/10/28 01:02:40;;;;;;;4.25;0.60;;;17.70;39.40;;;;;;7404874;19;19915;-75
2023/10/28 01:05:16;;;;;;;2.70;0.68;;;17.60;39.70;;;;;;7403117;19;19933;-74
2023/10/28 01:07:53;;;;;;;1.95;0.73;;;17.60;39.90;;;;;;7403776;19;20322;-74
2023/10/28 01:10:27;;;;;;;2.83;0.55;;;17.60;40.20;;;;;;7400467;19;19914;-74
2023/10/28 01:12:53;;;;;;;2.47;0.52;;;17.60;40.50;;;;;;7399591;19;19918;-74
2023/10/28 01:15:19;;;;;;;1.50;0.70;;;17.60;40.30;;;;;;7398940;19;20309;-74
2023/10/28 01:17:45;;;;;;;1.58;0.40;;;17.60;40.30;;;;;;7401127;19;19913;-75
2023/10/28 01:20:11;;;;;;;2.28;0.47;;;17.60;40.80;;;;;;7401482;19;20597;-72
2023/10/28 01:22:37;;;;;;;2.28;0.43;;;17.60;40.70;;;;;;7401218;19;20350;-76
2023/10/28 01:25:03;;;;;;;2.33;0.43;;;17.60;40.70;;;;;;7398932;19;20381;-75
2023/10/28 01:27:30;;;;;;;1.77;0.40;;;17.50;41.30;;;;;;7401790;19;19911;-75
2023/10/28 01:29:55;;;;;;;2.63;0.50;;;17.40;42.10;;;;;;7400528;19;19915;-74
2023/10/28 01:32:22;;;;;;;1.95;0.40;;;17.30;42.70;;;;;;7399145;19;19979;-74
2023/10/28 01:34:50;;;;;;;3.50;0.77;;;17.30;42.70;;;;;;7401517;19;19925;-74
2023/10/28 01:37:20;;;;;;;3.58;0.50;;;17.30;43.20;;;;;;7400630;19;19911;-74
2023/10/28 01:39:48;;;;;;;1.42;0.40;;;17.20;43.90;;;;;;7400669;19;19921;-74
2023/10/28 01:42:19;;;;;;;3.70;0.90;;;17.20;43.70;;;;;;7398984;19;19921;-75
2023/10/28 01:44:46;;;;;;;2.78;0.43;;;17.20;43.70;;;;;;7398736;19;20534;-76
2023/10/28 01:47:13;;;;;;;5.78;0.80;;;17.20;44.20;;;;;;7376568;19;19947;-75
2023/10/28 01:49:39;;;;;;;2.67;0.50;;;17.10;44.70;;;;;;7398617;19;21353;-74
2023/10/28 01:52:07;;;;;;;1.88;0.32;;;17.10;45.40;;;;;;7396485;19;19915;-75
2023/10/28 01:54:35;;;;;;;3.33;0.65;;;16.90;45.90;;;;;;7398502;19;20629;-75
2023/10/28 01:57:05;;;;;;;3.15;0.70;;;16.80;46.90;;;;;;7400823;19;19953;-75
2023/10/28 01:59:32;;;;;;;3.42;0.60;;;16.80;47.20;;;;;;7398198;19;19959;-74
2023/10/28 02:02:01;;;;;;;2.30;0.73;;;16.80;48.00;;;;;;7400603;19;19918;-76
2023/10/28 02:04:27;;;;;;;2.83;0.60;;;16.70;48.50;;;;;;7399579;19;19922;-75
2023/10/28 02:06:53;;;;;;;2.50;0.57;;;16.70;49.20;;;;;;7404780;19;20346;-75
2023/10/28 02:09:19;;;;;;;2.22;0.55;;;16.70;49.70;;;;;;7404750;19;19936;-74
2023/10/28 02:11:44;;;;;;;3.35;0.73;;;16.70;49.30;;;;;;7407307;19;19915;-74
2023/10/28 02:14:11;;;;;;;2.83;0.47;;;16.60;50.50;;;;;;7378283;19;20024;-74
2023/10/28 02:16:38;;;;;;;3.13;0.70;;;16.50;51.60;;;;;;7404464;19;19918;-74
2023/10/28 02:19:05;;;;;;;4.25;0.80;;;16.40;52.30;;;;;;7404551;19;19914;-75
2023/10/28 02:21:31;;;;;;;2.63;0.70;;;16.40;52.90;;;;;;7406676;19;20666;-74
2023/10/28 02:23:57;;;;;;;2.72;0.60;;;16.30;53.40;;;;;;7405407;19;19922;-75
2023/10/28 02:26:23;;;;;;;3.83;1.13;;;16.30;53.80;;;;;;7405414;19;20346;-75
2023/10/28 02:28:49;;;;;;;2.65;0.73;;;16.40;53.80;;;;;;7404180;19;19930;-75
2023/10/28 02:31:15;;;;;;;3.33;0.60;;;16.40;53.90;;;;;;7403282;19;19948;-74
2023/10/28 02:33:41;;;;;;;2.40;0.63;;;16.30;54.00;;;;;;7406617;19;19933;-75
2023/10/28 02:36:08;;;;;;;2.30;0.70;;;16.30;54.10;;;;;;7405163;19;19947;-75
2023/10/28 02:38:35;;;;;;;2.95;0.80;;;16.30;54.40;;;;;;7404294;19;19919;-75
2023/10/28 02:41:05;;;;;;;2.13;0.40;;;16.30;54.60;;;;;;7404985;19;20343;-75
2023/10/28 02:43:31;;;;;;;2.30;0.55;;;16.30;54.70;;;;;;7409897;19;20819;-73
2023/10/28 02:45:56;;;;;;;2.13;0.50;;;16.30;55.00;;;;;;7408108;19;19922;-74
2023/10/28 02:48:22;;;;;;;3.55;1.05;;;16.30;55.10;;;;;;7407594;19;20019;-74
2023/10/28 02:50:48;;;;;;;1.77;0.40;;;16.30;55.50;;;;;;7411081;19;19936;-73
2023/10/28 02:53:14;;;;;;;3.17;0.77;;;16.20;55.70;;;;;;7407332;19;19935;-73
2023/10/28 02:55:39;;;;;;;3.58;0.60;;;16.20;56.20;;;;;;7410232;19;20242;-74
2023/10/28 02:58:05;;;;;;;2.20;0.40;;;16.30;56.20;;;;;;7405812;19;19931;-73
2023/10/28 03:00:31;;;;;;;2.50;0.55;;;16.30;56.10;;;;;;7409690;19;20353;-74
2023/10/28 03:02:57;;;;;;;3.85;0.60;;;16.20;56.20;;;;;;7389276;19;19968;-73
2023/10/28 03:05:24;;;;;;;4.28;0.50;;;16.30;56.50;;;;;;7406968;19;19985;-73
2023/10/28 03:07:51;;;;;;;2.42;0.60;;;16.30;56.90;;;;;;7410352;19;19922;-73
2023/10/28 03:10:17;;;;;;;4.70;0.73;;;16.20;57.10;;;;;;7405063;19;19936;-74
2023/10/28 03:12:43;;;;;;;2.00;0.47;;;16.20;57.60;;;;;;7406512;19;19918;-74
2023/10/28 03:15:10;;;;;;;1.98;0.50;;;16.30;57.80;;;;;;7400596;19;19938;-75
2023/10/28 03:17:40;;;;;;;1.85;0.40;;;16.30;57.60;;;;;;7407905;19;19906;-73
2023/10/28 03:20:11;;;;;;;2.45;0.63;;;16.40;57.40;;;;;;7404142;19;19915;-73
2023/10/28 03:22:38;;;;;;;2.70;0.70;;;16.40;57.40;;;;;;7408177;19;20254;-73
2023/10/28 03:25:04;;;;;;;2.40;0.63;;;16.40;57.50;;;;;;7404441;19;19919;-74
2023/10/28 03:27:32;;;;;;;2.53;0.50;;;16.40;57.40;;;;;;7407401;19;19914;-73
2023/10/28 03:30:00;;;;;;;2.58;0.50;;;16.50;57.20;;;;;;7404492;19;19942;-73
2023/10/28 03:32:26;;;;;;;2.45;0.63;;;16.50;57.20;;;;;;7403628;19;20353;-73
2023/10/28 03:34:52;;;;;;;3.10;0.75;;;16.50;57.20;;;;;;7407127;19;20587;-73
2023/10/28 03:37:18;;;;;;;2.53;0.50;;;16.50;57.30;;;;;;7403771;19;19926;-73
2023/10/28 03:39:45;;;;;;;6.72;0.65;;;16.50;57.50;;;;;;7407924;19;19968;-74
2023/10/28 03:42:11;;;;;;;3.92;0.98;;;16.50;57.80;;;;;;7405812;19;19930;-73
2023/10/28 03:44:39;;;;;;;2.53;0.60;;;16.40;58.00;;;;;;7405489;19;19906;-73
2023/10/28 03:47:06;;;;;;;4.75;0.85;;;16.40;58.10;;;;;;7402126;19;19918;-73
2023/10/28 03:49:33;;;;;;;2.38;0.50;;;16.40;58.50;;;;;;7406354;19;19915;-73
2023/10/28 03:52:00;;;;;;;2.13;0.47;;;16.40;58.40;;;;;;7409620;19;19914;-74
2023/10/28 03:54:27;;;;;;;2.45;0.50;;;16.40;59.00;;;;;;7406715;19;19929;-75
2023/10/28 03:56:57;;;;;;;2.22;0.47;;;16.30;59.50;;;;;;7405913;19;19950;-74
2023/10/28 03:59:23;;;;;;;2.38;0.55;;;16.20;60.10;;;;;;7404480;19;19947;-72
2023/10/28 04:01:49;;;;;;;2.25;0.60;;;16.20;60.40;;;;;;7405970;19;19911;-73
2023/10/28 04:04:14;;;;;;;2.85;0.40;;;16.20;60.30;;;;;;7402602;19;19906;-73
2023/10/28 04:06:40;;;;;;;2.97;0.70;;;16.10;60.80;;;;;;7403611;19;19922;-73
2023/10/28 04:09:07;;;;;;;1.70;0.40;;;16.20;61.10;;;;;;7404534;19;20544;-74
2023/10/28 04:11:33;;;;;;;2.80;0.45;;;16.20;61.40;;;;;;7404744;19;19949;-73
2023/10/28 04:13:59;;;;;;;1.88;0.50;;;16.20;61.50;;;;;;7404994;19;19936;-73
2023/10/28 04:16:25;;;;;;;2.90;0.70;;;16.20;61.70;;;;;;7402392;19;19919;-73
2023/10/28 04:18:52;;;;;;;3.20;0.50;;;16.10;62.00;;;;;;7405118;19;20247;-73
2023/10/28 04:21:18;;;;;;;3.17;0.57;;;16.10;62.30;;;;;;7403601;19;19922;-74
2023/10/28 04:23:44;;;;;;;2.22;0.50;;;16.00;62.60;;;;;;7400033;19;19938;-74
2023/10/28 04:26:09;;;;;;;2.28;0.40;;;16.00;63.10;;;;;;7404382;19;20322;-73
2023/10/28 04:28:38;;;;;;;2.15;0.75;;;16.00;63.20;;;;;;7403738;19;19920;-75
2023/10/28 04:31:05;;;;;;;3.40;0.50;;;16.00;63.30;;;;;;7402670;19;19918;-73
2023/10/28 04:33:32;;;;;;;2.70;0.52;;;16.00;63.50;;;;;;7400108;19;19929;-73
2023/10/28 04:35:59;;;;;;;2.08;0.55;;;16.10;63.20;;;;;;7405552;19;19918;-74
2023/10/28 04:38:25;;;;;;;3.20;0.43;;;16.20;62.80;;;;;;7397495;19;19943;-73
2023/10/28 04:40:51;;;;;;;2.22;0.60;;;16.20;62.10;;;;;;7404667;19;19922;-75
2023/10/28 04:43:20;;;;;;;3.38;0.57;;;16.30;61.80;;;;;;7400215;19;20370;-75
2023/10/28 04:45:46;;;;;;;2.80;0.60;;;16.30;61.80;;;;;;7402905;19;20008;-74
2023/10/28 04:48:15;;;;;;;1.83;0.30;;;16.30;61.80;;;;;;7398758;19;19940;-75
2023/10/28 04:50:41;;;;;;;1.73;0.40;;;16.30;61.60;;;;;;7402187;19;19996;-74
2023/10/28 04:53:08;;;;;;;2.17;0.50;;;16.30;61.10;;;;;;7399831;19;20898;-74
2023/10/28 04:55:34;;;;;;;2.75;0.50;;;16.30;61.60;;;;;;7402411;19;19939;-75
2023/10/28 04:58:02;;;;;;;1.27;0.30;;;16.20;61.50;;;;;;7402156;19;20292;-73
2023/10/28 05:00:29;;;;;;;2.95;0.50;;;16.30;61.10;;;;;;7381630;19;19943;-76
2023/10/28 05:02:54;;;;;;;4.32;1.23;;;16.40;60.80;;;;;;7398197;19;19911;-74
2023/10/28 05:05:20;;;;;;;1.60;0.50;;;16.30;60.90;;;;;;7402271;19;20265;-75
2023/10/28 05:07:46;;;;;;;2.45;0.57;;;16.30;60.80;;;;;;7398336;19;19925;-74
2023/10/28 05:10:12;;;;;;;2.63;0.60;;;16.20;61.40;;;;;;7396828;19;19933;-74
2023/10/28 05:12:39;;;;;;;1.00;0.43;;;16.20;61.90;;;;;;7398667;19;19926;-73
2023/10/28 05:15:07;;;;;;;1.25;0.20;;;16.20;61.50;;;;;;7400536;19;19982;-74
2023/10/28 05:17:35;;;;;;;3.15;0.60;;;16.20;61.60;;;;;;7398581;19;19922;-77
2023/10/28 05:20:01;;;;;;;2.83;0.50;;;16.40;60.40;;;;;;7401028;19;19927;-74
2023/10/28 05:22:27;;;;;;;1.98;0.40;;;16.40;60.50;;;;;;7396420;19;20008;-73
2023/10/28 05:24:54;;;;;;;2.05;0.60;;;16.30;61.10;;;;;;7400869;19;20332;-74
2023/10/28 05:27:20;;;;;;;3.20;0.40;;;16.30;61.60;;;;;;7396739;19;19917;-74
2023/10/28 05:29:46;;;;;;;2.38;0.43;;;16.40;60.10;;;;;;7379652;19;19911;-75
2023/10/28 05:32:11;;;;;;;4.07;0.45;;;16.50;60.40;;;;;;7398894;19;19935;-73
2023/10/28 05:34:38;;;;;;;1.67;0.40;;;16.50;59.70;;;;;;7402403;19;19911;-75
2023/10/28 05:37:05;;;;;;;2.13;0.40;;;16.40;60.20;;;;;;7398925;19;20359;-74
2023/10/28 05:39:31;;;;;;;7.75;0.85;;;16.50;59.80;;;;;;7408461;19;19927;-75
2023/10/28 05:41:57;;;;;;;2.13;0.52;;;16.40;59.90;;;;;;7406433;19;19923;-74
2023/10/28 05:44:23;;;;;;;2.30;0.47;;;16.30;61.00;;;;;;7405027;19;19926;-75
2023/10/28 05:46:48;;;;;;;2.45;0.63;;;16.30;60.80;;;;;;7402384;19;19933;-74
2023/10/28 05:49:14;;;;;;;2.67;0.52;;;16.30;61.10;;;;;;7406309;19;19937;-74
2023/10/28 05:51:43;;;;;;;2.38;0.50;;;16.30;61.00;;;;;;7403967;19;19932;-74
2023/10/28 05:54:11;;;;;;;2.38;0.47;;;16.40;60.00;;;;;;7407215;19;19919;-74
2023/10/28 05:56:36;;;;;;;2.75;0.43;;;16.40;61.00;;;;;;7400626;19;19919;-76
2023/10/28 05:59:02;;;;;;;24.17;11.77;;;16.30;60.90;;;;;;7403495;19;19924;-76
2023/10/28 06:01:28;;;;;;;3.63;0.63;;;16.10;64.00;;;;;;7407624;19;19914;-75
2023/10/28 06:03:54;;;;;;;3.05;0.60;;;15.90;65.40;;;;;;7405213;19;19930;-76
2023/10/28 06:06:20;;;;;;;3.85;0.60;;;15.90;65.40;;;;;;7406818;19;19942;-76
2023/10/28 06:08:46;;;;;;;3.42;0.75;;;15.90;65.80;;;;;;7406936;19;19910;-74
2023/10/28 06:11:11;;;;;;;4.53;0.60;;;15.90;65.70;;;;;;7405949;19;19948;-76
2023/10/28 06:13:37;;;;;;;3.30;0.45;;;15.90;65.80;;;;;;7405592;19;19910;-76
2023/10/28 06:16:03;;;;;;;3.88;0.50;;;15.90;65.70;;;;;;7403385;19;19938;-75
2023/10/28 06:18:33;;;;;;;3.33;0.68;;;15.90;64.90;;;;;;7406782;19;19907;-75
2023/10/28 06:21:00;;;;;;;1.83;0.40;;;15.90;65.10;;;;;;7407302;19;20260;-74
2023/10/28 06:23:26;;;;;;;2.28;0.50;;;15.90;65.10;;;;;;7401733;19;19926;-76
2023/10/28 06:25:51;;;;;;;2.60;0.40;;;15.90;65.20;;;;;;7408014;19;19948;-74
2023/10/28 06:28:18;;;;;;;1.48;0.47;;;15.90;65.30;;;;;;7405987;19;19918;-76
2023/10/28 06:30:48;;;;;;;1.85;0.70;;;15.80;65.30;;;;;;7406820;19;19911;-76
2023/10/28 06:33:13;;;;;;;3.60;0.88;;;15.90;64.80;;;;;;7406135;19;19914;-76
2023/10/28 06:35:39;;;;;;;2.65;0.50;;;16.00;64.20;;;;;;7406774;19;19939;-75
2023/10/28 06:38:06;;;;;;;2.08;0.70;;;16.00;63.90;;;;;;7401148;19;19930;-75
2023/10/28 06:40:33;;;;;;;3.28;0.80;;;15.90;64.20;;;;;;7407786;19;19927;-75
2023/10/28 06:42:58;;;;;;;;;;;16.00;63.70;;;;;;7407355;19;19936;-76
2023/10/28 06:45:24;;;;;;;1.50;0.32;;;16.10;62.50;;;;;;7407189;19;20295;-75
2023/10/28 06:47:52;;;;;;;1.77;0.43;;;16.10;61.60;;;;;;7406895;19;19919;-75
2023/10/28 06:50:19;;;;;;;4.55;0.63;;;16.10;61.70;;;;;;7402886;19;19938;-75
2023/10/28 06:52:51;;;;;;;3.20;0.50;;;16.20;61.60;;;;;;7404578;19;19918;-75
2023/10/28 06:55:18;;;;;;;3.10;0.50;;;16.30;61.00;;;;;;7409298;19;20347;-74
2023/10/28 06:57:44;;;;;;;;;;;16.30;60.10;;;;;;7386607;19;19921;-75
2023/10/28 07:00:16;;;;;;;1.40;0.25;;;16.40;59.40;;;;;;7404520;19;19946;-75
2023/10/28 07:02:43;;;;;;;2.22;0.60;;;16.40;58.30;;;;;;7404657;19;19914;-75
2023/10/28 07:05:10;;;;;;;3.10;0.68;;;16.40;58.00;;;;;;7403431;19;19907;-76
2023/10/28 07:07:39;;;;;;;3.30;0.85;;;16.50;57.50;;;;;;7406477;19;19913;-75
2023/10/28 07:10:05;;;;;;;3.45;0.60;;;16.50;56.60;;;;;;7404669;19;19923;-77
2023/10/28 07:12:31;;;;;;;3.28;0.50;;;16.60;55.60;;;;;;7405925;19;19922;-75
2023/10/28 07:14:58;;;;;;;2.25;0.50;;;16.70;55.10;;;;;;7405088;19;19918;-76
2023/10/28 07:17:24;;;;;;;2.17;0.65;;;16.80;53.90;;;;;;7357602;19;19929;-75
2023/10/28 07:19:51;;;;;;;3.58;0.63;;;17.00;53.00;;;;;;7405307;19;19918;-75
2023/10/28 07:22:22;;;;;;;3.83;0.73;;;17.00;52.90;;;;;;7404537;19;19915;-75
2023/10/28 07:24:48;;;;;;;3.38;0.98;;;17.00;53.00;;;;;;7406827;19;19915;-74
2023/10/28 07:27:18;;;;;;;2.05;0.70;;;17.10;53.00;;;;;;7382760;19;19919;-74
2023/10/28 07:29:44;;;;;;;1.98;0.60;;;17.10;52.60;;;;;;7406875;19;19947;-74
2023/10/28 07:32:10;;;;;;;2.88;0.63;;;17.30;51.80;;;;;;7399961;19;19932;-75
2023/10/28 07:34:36;;;;;;;2.70;0.63;;;17.30;51.10;;;;;;7406611;19;19919;-75
2023/10/28 07:37:05;;;;;;;2.85;1.00;;;17.40;51.00;;;;;;7406723;19;20458;-76
2023/10/28 07:39:31;;;;;;;3.35;0.60;;;17.40;50.80;;;;;;7408122;19;19919;-77
2023/10/28 07:41:58;;;;;;;3.47;0.65;;;17.50;50.20;;;;;;7379176;19;19929;-75
2023/10/28 07:44:23;;;;;;;2.30;0.70;;;17.60;50.00;;;;;;7405746;19;19927;-76
2023/10/28 07:46:49;;;;;;;4.72;0.80;;;17.70;49.70;;;;;;7406173;19;20319;-76
2023/10/28 07:49:24;;;;;;;2.45;0.45;;;17.70;49.10;;;;;;7403745;19;19944;-75
2023/10/28 07:51:54;;;;;;;1.83;0.55;;;17.70;49.50;;;;;;7400608;19;20306;-78
2023/10/28 07:54:20;;;;;;;3.13;0.60;;;17.80;49.30;;;;;;7400375;19;19926;-74
2023/10/28 07:56:46;;;;;;;4.45;0.60;;;17.80;49.10;;;;;;7403954;19;19930;-73
2023/10/28 07:59:13;;;;;;;1.92;0.60;;;18.00;49.00;;;;;;7399468;19;19914;-75
2023/10/28 08:01:39;;;;;;;2.72;0.43;;;18.10;48.80;;;;;;7390752;19;19969;-75
2023/10/28 08:04:29;;;;;;;3.63;0.70;;;18.20;48.10;;;;;;7389249;19;19931;-75
2023/10/28 08:06:55;;;;;;;2.53;0.65;;;18.30;47.90;;;;;;7396293;19;19925;-74
2023/10/28 08:09:22;;;;;;;4.32;0.80;;;20.10;42.90;;;;;;7398714;19;20319;-75
2023/10/28 08:11:48;;;;;;;2.97;0.68;;;21.40;35.90;;;;;;7403563;19;20361;-76
2023/10/28 08:14:14;;;;;;;2.80;1.05;;;22.30;32.20;;;;;;7401775;19;19914;-76
2023/10/28 08:16:41;;;;;;;3.05;0.85;;;22.90;29.70;;;;;;7404629;19;19990;-74
2023/10/28 08:19:08;;;;;;;3.72;0.85;;;22.80;29.10;;;;;;7404255;19;19982;-75
2023/10/28 08:21:34;;;;;;;3.63;0.85;;;22.50;29.00;;;;;;7406340;19;19919;-76
2023/10/28 08:24:00;;;;;;;2.58;0.68;;;22.80;28.40;;;;;;7404356;19;19935;-76
2023/10/28 08:26:27;;;;;;;5.38;0.90;;;22.00;29.30;;;;;;7403101;19;19943;-75
2023/10/28 08:28:53;;;;;;;3.28;0.85;;;21.20;31.90;;;;;;7402923;19;19919;-74
2023/10/28 08:31:19;;;;;;;;;;;21.40;31.90;;;;;;7401598;19;19932;-74
2023/10/28 08:33:45;;;;;;;2.58;0.75;;;21.20;32.10;;;;;;7391520;19;20323;-76
2023/10/28 08:36:11;;;;;;;3.78;0.80;;;20.90;33.10;;;;;;7395988;19;19966;-75
2023/10/28 08:38:37;;;;;;;3.05;0.93;;;20.70;34.30;;;;;;7400905;19;20352;-76
2023/10/28 08:41:04;;;;;;;4.18;0.95;;;20.40;35.00;;;;;;7397320;19;19946;-76
2023/10/28 08:43:36;;;;;;;1.98;0.70;;;20.50;36.00;;;;;;7380381;19;19915;-76
2023/10/28 08:46:04;;;;;;;7.18;0.88;;;20.50;35.80;;;;;;7391130;19;19979;-75
2023/10/28 08:48:33;;;;;;;2.63;0.90;;;20.20;36.20;;;;;;7393997;19;19978;-76
2023/10/28 08:51:02;;;;;;;3.97;0.70;;;20.10;36.60;;;;;;7396705;19;19924;-77
2023/10/28 08:53:33;;;;;;;4.43;0.77;;;20.40;36.10;;;;;;7405596;19;19928;-75
2023/10/28 08:56:01;;;;;;;2.33;0.70;;;20.40;36.20;;;;;;7400863;19;19942;-77
2023/10/28 08:58:27;;;;;;;5.20;0.80;;;20.30;35.30;;;;;;7402980;19;19926;-78
2023/10/28 09:00:56;;;;;;;3.38;0.70;;;20.30;35.90;;;;;;7404693;19;19956;-75
2023/10/28 09:03:25;;;;;;;4.03;0.80;;;20.50;36.10;;;;;;7400098;19;19933;-75
2023/10/28 09:05:52;;;;;;;2.38;0.50;;;20.60;35.30;;;;;;7402928;19;19936;-76
2023/10/28 09:08:23;;;;;;;5.85;1.23;;;20.80;34.50;;;;;;7402565;19;20327;-77
2023/10/28 09:10:49;;;;;;;1.63;0.55;;;20.80;33.90;;;;;;7403589;19;19922;-76
2023/10/28 09:13:15;;;;;;;7.90;2.20;;;20.70;34.50;;;;;;7407823;19;19919;-76
2023/10/28 09:15:41;;;;;;;5.30;1.73;;;20.90;34.30;;;;;;7410506;19;20666;-76
2023/10/28 09:18:08;;;;;;;1.92;0.52;;;20.90;33.60;;;;;;7407337;19;19919;-75
2023/10/28 09:20:37;;;;;;;5.05;0.82;;;21.10;32.60;;;;;;7407464;19;19947;-76
2023/10/28 09:23:03;;;;;;;2.83;0.60;;;21.10;32.30;;;;;;7403298;19;19915;-75
2023/10/28 09:25:30;;;;;;;4.10;0.88;;;21.10;32.50;;;;;;7406011;19;19911;-75
2023/10/28 09:27:56;;;;;;;5.65;0.93;;;21.10;32.30;;;;;;7403201;19;19918;-75
2023/10/28 09:30:22;;;;;;;1.83;0.60;;;21.20;31.30;;;;;;7402602;19;20970;-74
2023/10/28 09:32:48;;;;;;;3.53;0.60;;;21.20;30.30;;;;;;7405768;19;20275;-75
2023/10/28 09:35:14;;;;;;;2.10;0.65;;;21.40;29.90;;;;;;7405413;19;19919;-77
2023/10/28 09:37:41;;;;;;;3.13;0.82;;;21.40;28.40;;;;;;7408173;19;19929;-75
2023/10/28 09:40:09;;;;;;;2.38;0.57;;;21.80;28.20;;;;;;7406047;19;19914;-76
2023/10/28 09:42:38;;;;;;;4.80;0.90;;;21.80;27.00;;;;;;7404062;19;19935;-76
2023/10/28 09:45:09;;;;;;;1.95;0.77;;;22.30;27.30;;;;;;7406526;19;19922;-76
2023/10/28 09:47:57;;;;;;;2.65;0.80;;;22.10;26.40;;;;;;7410146;19;20330;-75
2023/10/28 09:50:28;;;;;;;2.33;0.90;;;22.40;25.30;;;;;;7405531;19;19954;-75
2023/10/28 09:52:56;;;;;;;4.38;0.80;;;22.50;25.60;;;;;;7408622;19;19917;-76
2023/10/28 09:55:27;;;;;;;3.58;1.00;;;22.40;25.30;;;;;;7409969;19;19950;-75
2023/10/28 09:58:22;;;;;;;3.88;1.00;;;22.80;24.50;;;;;;7409965;19;19941;-75
2023/10/28 10:00:54;;;;;;;4.40;0.80;;;22.40;25.30;;;;;;7409205;19;19915;-75
2023/10/28 10:03:26;;;;;;;1.98;0.60;;;22.80;24.60;;;;;;7385704;19;19906;-75
2023/10/28 10:05:53;;;;;;;3.50;0.80;;;22.70;23.80;;;;;;7408800;19;19915;-74
2023/10/28 10:08:25;;;;;;;3.38;0.90;;;23.20;23.70;;;;;;7403655;19;20660;-76
2023/10/28 10:10:57;;;;;;;4.40;0.82;;;23.20;23.30;;;;;;7411251;19;20351;-77
2023/10/28 10:13:23;;;;;;;3.20;0.93;;;22.80;23.70;;;;;;7409829;19;19970;-76
2023/10/28 10:16:03;;;;;;;3.33;0.98;;;23.40;22.50;;;;;;7409297;19;19919;-76
2023/10/28 10:18:39;;;;;;;3.22;0.82;;;23.40;21.60;;;;;;7405669;19;19915;-76
2023/10/28 10:21:12;;;;;;;2.42;0.63;;;23.30;22.10;;;;;;7407551;19;19924;-75
2023/10/28 10:23:46;;;;;;;2.30;0.82;;;23.10;22.60;;;;;;7404315;19;19917;-72
2023/10/28 10:26:26;;;;;;;2.50;0.75;;;22.90;21.90;;;;;;7405742;19;20299;-75
2023/10/28 10:28:58;;;;;;;1.85;0.95;;;23.80;21.60;;;;;;7405124;19;19933;-76
2023/10/28 10:31:34;;;;;;;3.90;1.00;;;23.90;21.10;;;;;;7406246;19;19918;-76
2023/10/28 10:34:09;;;;;;;3.15;1.05;;;23.60;22.10;;;;;;7406225;19;19918;-75
2023/10/28 10:36:42;;;;;;;3.63;0.68;;;23.90;21.20;;;;;;7384012;19;20645;-76
2023/10/28 10:39:16;;;;;;;3.47;1.08;;;24.70;19.70;;;;;;7405404;19;20479;-76
2023/10/28 10:42:05;;;;;;;2.47;0.80;;;23.50;20.20;;;;;;7404183;19;20545;-73
2023/10/28 10:44:36;;;;;;;5.25;0.95;;;22.90;21.60;;;;;;7404940;19;19957;-76
2023/10/28 10:47:04;;;;;;;3.72;1.23;;;23.70;20.90;;;;;;7403784;19;19956;-75
2023/10/28 10:49:32;;;;;;;3.13;0.77;;;23.90;20.50;;;;;;7407593;19;19918;-75
2023/10/28 10:52:01;;;;;;;2.45;0.73;;;23.80;20.30;;;;;;7404743;19;19919;-76
2023/10/28 10:54:33;;;;;;;3.65;1.10;;;23.30;20.70;;;;;;7401213;19;19936;-78
2023/10/28 10:56:59;;;;;;;3.25;1.08;;;24.20;20.50;;;;;;7411099;19;19926;-77
2023/10/28 10:59:31;;;;;;;4.18;1.20;;;24.00;20.20;;;;;;7407241;19;20034;-78
2023/10/28 11:01:57;;;;;;;3.40;1.27;;;24.20;20.10;;;;;;7409351;19;19962;-78
2023/10/28 11:04:23;;;;;;;;;;;23.90;20.50;;;;;;7410400;19;19937;-78
2023/10/28 11:06:51;;;;;;;3.10;1.23;;;24.00;20.00;;;;;;7412937;19;19906;-77
2023/10/28 11:09:25;;;;;;;2.55;0.93;;;24.10;19.90;;;;;;7407274;19;20359;-78
2023/10/28 11:11:51;;;;;;;2.45;0.80;;;24.30;19.50;;;;;;7408580;19;19915;-76
2023/10/28 11:14:17;;;;;;;4.75;0.85;;;24.20;19.60;;;;;;7408028;19;19930;-77
2023/10/28 11:16:43;;;;;;;;;;;22.90;20.80;;;;;;7407954;19;19922;-75
2023/10/28 11:19:11;;;;;;;3.53;1.33;;;23.40;21.00;;;;;;7407100;19;19939;-74
2023/10/28 11:21:40;;;;;;;3.05;0.85;;;23.60;20.10;;;;;;7404773;19;20250;-75
2023/10/28 11:24:08;;;;;;;2.03;0.90;;;23.80;20.30;;;;;;7403511;19;19914;-75
2023/10/28 11:26:35;;;;;;;3.75;1.02;;;23.50;19.70;;;;;;7404853;19;20333;-73
2023/10/28 11:29:01;;;;;;;2.75;1.00;;;24.00;19.80;;;;;;7404365;19;20623;-76
2023/10/28 11:31:31;;;;;;;2.25;0.95;;;24.50;19.00;;;;;;7405437;19;19919;-72
2023/10/28 11:33:58;;;;;;;2.97;0.93;;;23.80;19.70;;;;;;7406945;19;20038;-74
2023/10/28 11:36:25;;;;;;;2.63;1.00;;;23.30;20.80;;;;;;7404288;19;20334;-77
2023/10/28 11:38:51;;;;;;;3.05;1.10;;;23.60;20.80;;;;;;7408702;19;19907;-76
2023/10/28 11:41:20;;;;;;;3.30;0.98;;;24.40;20.20;;;;;;7404258;19;19919;-75
2023/10/28 11:43:49;;;;;;;2.05;0.90;;;25.40;17.90;;;;;;7404083;19;20308;-76
2023/10/28 11:46:15;;;;;;;3.58;1.23;;;25.60;17.90;;;;;;7406595;19;19946;-75
2023/10/28 11:48:44;;;;;;;4.05;1.25;;;25.60;17.50;;;;;;7403498;19;19918;-75
2023/10/28 11:51:09;;;;;;;3.33;1.00;;;26.00;17.20;;;;;;7404326;19;19918;-76
2023/10/28 11:53:40;;;;;;;3.50;1.20;;;25.50;16.90;;;;;;7406616;19;19926;-74
2023/10/28 11:56:06;;;;;;;3.75;1.40;;;25.50;17.30;;;;;;7380759;19;19907;-76
2023/10/28 11:58:32;;;;;;;3.25;1.00;;;24.60;18.70;;;;;;7404840;19;19939;-75
2023/10/28 12:01:01;;;;;;;2.42;0.73;;;24.40;19.10;;;;;;7405181;19;19922;-76
2023/10/28 12:03:27;;;;;;;3.13;1.10;;;24.20;19.50;;;;;;7406871;19;19925;-76
2023/10/28 12:05:53;;;;;;;4.45;1.30;;;23.80;20.60;;;;;;7405386;19;19919;-75
2023/10/28 12:08:19;;;;;;;;;;;24.00;20.40;;;;;;7405619;19;19915;-75
2023/10/28 12:10:46;;;;;;;2.83;0.95;;;23.80;20.80;;;;;;7406078;19;19936;-75
2023/10/28 12:13:12;;;;;;;2.90;0.98;;;23.70;21.20;;;;;;7405631;19;19986;-76
2023/10/28 12:15:39;;;;;;;3.13;0.95;;;23.70;21.20;;;;;;7403433;19;19934;-75
2023/10/28 12:18:05;;;;;;;2.55;0.82;;;23.50;21.00;;;;;;7400873;19;19925;-75
2023/10/28 12:20:31;;;;;;;3.03;1.10;;;23.40;21.30;;;;;;7404173;19;19915;-75
2023/10/28 12:22:57;;;;;;;2.33;0.90;;;23.20;21.70;;;;;;7404651;19;19913;-76
2023/10/28 12:25:23;;;;;;;4.82;1.40;;;23.20;21.80;;;;;;7405144;19;21773;-76
2023/10/28 12:27:51;;;;;;;3.10;1.40;;;23.30;21.80;;;;;;7403967;19;19911;-75
2023/10/28 12:30:18;;;;;;;4.65;1.10;;;23.70;21.20;;;;;;7400388;19;19911;-74
2023/10/28 12:32:46;;;;;;;4.97;1.20;;;23.70;21.20;;;;;;7405560;19;19915;-75
2023/10/28 12:35:13;;;;;;;2.80;0.80;;;23.70;21.00;;;;;;7404892;19;20033;-74
2023/10/28 12:37:42;;;;;;;2.63;1.00;;;23.50;21.00;;;;;;7404777;19;19907;-75
2023/10/28 12:40:09;;;;;;;2.08;0.65;;;23.30;21.60;;;;;;7404587;19;19914;-74
2023/10/28 12:42:35;;;;;;;5.47;0.95;;;23.20;21.90;;;;;;7404496;19;19915;-75
2023/10/28 12:45:06;;;;;;;;;;;23.10;22.30;;;;;;7405254;19;19942;-75
2023/10/28 12:47:32;;;;;;;4.65;1.48;;;23.30;21.70;;;;;;7401024;19;20381;-77
2023/10/28 12:49:57;;;;;;;2.95;1.13;;;23.20;22.20;;;;;;7402897;19;19926;-76